Time;durP1;ratioP1;P1;durP2;ratioP2;P2;SDS_P1;SDS_P2;PMS_P1;PMS_P2;Temp;Humidity;BMP_temperature;BMP_pressure;BME280_temperature;BME280_humidity;BME280_pressure;Samples;Min_cycle;Max_cycle;Signal;HPM_P1;HPM_P2
2022/04/20 00:01:57;;;;;;;3.37;1.87;;;6.50;99.90;;;;;;7316451;32;20137;-69
2022/04/20 00:05:59;;;;;;;1.90;1.23;;;6.30;99.90;;;;;;7317667;32;20325;-69
2022/04/20 00:10:01;;;;;;;6.40;1.70;;;6.30;99.90;;;;;;7319730;32;20115;-70
2022/04/20 00:14:02;;;;;;;2.20;1.60;;;6.20;99.90;;;;;;7315873;32;20143;-70
2022/04/20 00:18:04;;;;;;;3.83;1.60;;;6.10;99.90;;;;;;7315707;32;20111;-70
2022/04/20 00:22:06;;;;;;;5.22;1.60;;;6.00;99.90;;;;;;7318163;32;20890;-70
2022/04/20 00:26:08;;;;;;;4.25;1.35;;;5.90;99.90;;;;;;7316811;32;20138;-70
2022/04/20 00:30:11;;;;;;;8.35;1.77;;;5.80;99.90;;;;;;7310409;32;20906;-70
2022/04/20 00:34:13;;;;;;;2.78;1.65;;;5.70;99.90;;;;;;7320474;32;20107;-70
2022/04/20 00:38:16;;;;;;;3.42;1.20;;;5.60;99.90;;;;;;7323552;32;20634;-70
2022/04/20 00:42:22;;;;;;;4.07;1.70;;;5.50;99.90;;;;;;7321422;32;20190;-70
2022/04/20 00:46:24;;;;;;;3.15;1.48;;;5.50;99.90;;;;;;7318465;32;20824;-69
2022/04/20 00:50:26;;;;;;;2.97;1.62;;;5.50;99.90;;;;;;7323094;32;20107;-68
2022/04/20 00:54:28;;;;;;;3.17;1.20;;;5.40;99.90;;;;;;7322284;32;20116;-70
2022/04/20 00:58:30;;;;;;;3.92;1.52;;;5.40;99.90;;;;;;7322795;32;20661;-68
2022/04/20 01:02:32;;;;;;;3.67;1.70;;;5.40;99.90;;;;;;7320124;32;20787;-70
2022/04/20 01:06:34;;;;;;;4.82;1.52;;;5.40;99.90;;;;;;7319589;32;20198;-69
2022/04/20 01:10:35;;;;;;;5.53;1.77;;;5.20;99.90;;;;;;7319654;32;20517;-72
2022/04/20 01:14:37;;;;;;;2.80;1.50;;;5.30;99.90;;;;;;7322709;32;20759;-69
2022/04/20 01:18:43;;;;;;;4.20;1.70;;;5.20;99.90;;;;;;7320406;32;20669;-69
2022/04/20 01:22:45;;;;;;;2.80;1.40;;;5.10;99.90;;;;;;7322284;32;20115;-69
2022/04/20 01:26:46;;;;;;;3.95;1.80;;;5.00;99.90;;;;;;7318895;32;20108;-69
2022/04/20 01:30:48;;;;;;;3.05;1.85;;;5.00;99.90;;;;;;7320810;32;20264;-71
2022/04/20 01:34:52;;;;;;;3.17;1.70;;;5.00;99.90;;;;;;7322518;32;20285;-70
2022/04/20 01:38:53;;;;;;;2.95;1.62;;;5.00;99.90;;;;;;7323161;32;20111;-70
2022/04/20 01:42:55;;;;;;;4.18;1.50;;;5.00;99.90;;;;;;7323675;32;20244;-71
2022/04/20 01:46:57;;;;;;;3.12;1.40;;;5.00;99.90;;;;;;7318872;32;20131;-71
2022/04/20 01:55:19;;;;;;;3.62;1.52;;;4.80;99.90;;;;;;7314295;32;20165;-70
2022/04/20 01:59:20;;;;;;;5.90;1.90;;;4.70;99.90;;;;;;7317157;32;20104;-70
2022/04/20 02:03:22;;;;;;;2.80;1.75;;;4.80;99.90;;;;;;7318635;32;20143;-70
2022/04/20 02:07:24;;;;;;;2.72;1.60;;;4.70;99.90;;;;;;7315438;32;20130;-70
2022/04/20 02:11:25;;;;;;;3.03;1.70;;;4.70;99.90;;;;;;7318817;32;20116;-70
2022/04/20 02:15:28;;;;;;;3.75;1.70;;;4.80;99.90;;;;;;7318362;32;20485;-71
2022/04/20 02:19:29;;;;;;;4.12;1.70;;;4.80;99.90;;;;;;7309129;32;20194;-71
2022/04/20 02:23:31;;;;;;;3.35;1.60;;;4.70;99.90;;;;;;7314605;32;20199;-70
2022/04/20 02:27:33;;;;;;;3.47;2.10;;;4.80;99.90;;;;;;7315791;32;20611;-69
2022/04/20 02:31:35;;;;;;;5.47;1.98;;;5.00;99.90;;;;;;7311569;32;20236;-70
2022/04/20 02:35:38;;;;;;;3.00;1.98;;;5.00;99.90;;;;;;7315312;32;20159;-69
2022/04/20 02:39:40;;;;;;;7.55;2.50;;;5.10;99.90;;;;;;7315273;32;20205;-69
2022/04/20 02:43:42;;;;;;;2.80;2.00;;;5.10;99.90;;;;;;7314887;32;20191;-69
2022/04/20 02:47:44;;;;;;;3.03;2.12;;;5.10;99.90;;;;;;7313760;32;20104;-70
2022/04/20 02:51:46;;;;;;;3.95;2.05;;;5.20;99.90;;;;;;7312486;32;20534;-70
2022/04/20 02:55:47;;;;;;;4.95;2.30;;;5.20;99.90;;;;;;7319336;32;20103;-70
2022/04/20 02:59:49;;;;;;;4.87;1.95;;;5.10;99.90;;;;;;7318769;32;20119;-70
2022/04/20 03:03:50;;;;;;;5.75;2.20;;;5.20;99.90;;;;;;7316972;32;20223;-69
2022/04/20 03:07:52;;;;;;;4.85;1.92;;;5.20;99.90;;;;;;7320566;32;20133;-69
2022/04/20 03:11:54;;;;;;;4.15;2.33;;;5.10;99.90;;;;;;7317014;32;20203;-70
2022/04/20 03:15:55;;;;;;;6.50;2.40;;;5.10;99.90;;;;;;7319561;32;20126;-70
2022/04/20 03:19:57;;;;;;;3.45;1.80;;;5.00;99.90;;;;;;7317435;32;20804;-69
2022/04/20 03:23:59;;;;;;;2.97;1.98;;;4.90;99.90;;;;;;7321001;32;20528;-70
2022/04/20 03:28:00;;;;;;;3.53;1.85;;;4.70;99.90;;;;;;7317883;32;20134;-70
2022/04/20 03:32:11;;;;;;;5.12;2.47;;;4.60;99.90;;;;;;7318737;32;20129;-70
2022/04/20 03:36:13;;;;;;;4.97;2.37;;;4.50;99.90;;;;;;7313724;32;20446;-70
2022/04/20 03:40:14;;;;;;;3.70;2.10;;;4.60;99.90;;;;;;7317822;32;20130;-70
2022/04/20 03:44:16;;;;;;;5.70;2.33;;;4.40;99.90;;;;;;7318993;32;20119;-69
2022/04/20 03:48:18;;;;;;;8.95;4.10;;;4.40;99.90;;;;;;7317212;32;20255;-71
2022/04/20 03:52:19;;;;;;;3.50;2.70;;;4.40;99.90;;;;;;7315420;32;20325;-70
2022/04/20 03:56:21;;;;;;;3.85;2.35;;;4.40;99.90;;;;;;7320646;32;20163;-70
2022/04/20 04:00:24;;;;;;;5.90;2.30;;;4.30;99.90;;;;;;7317253;32;20505;-70
2022/04/20 04:04:26;;;;;;;5.75;2.20;;;4.30;99.90;;;;;;7318435;32;20134;-70
2022/04/20 04:08:29;;;;;;;5.85;2.85;;;4.30;99.90;;;;;;7318143;32;20153;-70
2022/04/20 04:12:31;;;;;;;3.97;2.58;;;4.40;99.90;;;;;;7316302;32;20599;-71
2022/04/20 04:16:36;;;;;;;4.18;2.62;;;4.30;99.90;;;;;;7318916;32;20209;-70
2022/04/20 04:20:38;;;;;;;5.90;2.80;;;4.30;99.90;;;;;;7317979;32;20489;-69
2022/04/20 04:24:40;;;;;;;5.20;2.75;;;4.20;99.90;;;;;;7315063;32;20245;-70
2022/04/20 04:28:42;;;;;;;5.68;3.00;;;4.10;99.90;;;;;;7310007;32;20523;-69
2022/04/20 04:32:43;;;;;;;9.82;2.85;;;4.20;99.90;;;;;;7317368;32;20114;-70
2022/04/20 04:36:45;;;;;;;6.05;2.70;;;4.20;99.90;;;;;;7315392;32;20129;-69
2022/04/20 04:40:47;;;;;;;7.37;3.25;;;4.30;99.90;;;;;;7311646;32;20523;-69
2022/04/20 04:44:49;;;;;;;7.30;3.80;;;4.40;99.90;;;;;;7314141;32;20103;-70
2022/04/20 04:48:51;;;;;;;5.20;2.70;;;4.50;99.90;;;;;;7313408;32;20323;-73
2022/04/20 04:52:53;;;;;;;9.82;2.78;;;4.50;99.90;;;;;;7315439;32;20230;-73
2022/04/20 04:56:55;;;;;;;4.97;2.80;;;4.50;99.90;;;;;;7314284;32;20167;-71
2022/04/20 05:00:58;;;;;;;11.05;5.35;;;4.40;99.90;;;;;;7310222;32;20116;-71
2022/04/20 05:05:00;;;;;;;6.93;2.92;;;4.40;99.90;;;;;;7311546;32;20161;-73
2022/04/20 05:09:04;;;;;;;4.68;2.45;;;4.40;99.90;;;;;;7312216;32;20690;-71
2022/04/20 05:13:09;;;;;;;8.18;2.67;;;4.40;99.90;;;;;;7318052;32;20208;-73
2022/04/20 05:17:11;;;;;;;6.75;2.58;;;4.50;99.90;;;;;;7313730;32;20210;-71
2022/04/20 05:21:13;;;;;;;4.37;2.58;;;4.60;99.90;;;;;;7321019;32;20123;-71
2022/04/20 05:25:15;;;;;;;4.35;2.67;;;4.60;99.90;;;;;;7320169;32;20160;-72
2022/04/20 05:29:19;;;;;;;7.00;3.30;;;4.70;99.90;;;;;;7319016;32;20107;-72
2022/04/20 05:33:21;;;;;;;7.35;2.72;;;4.80;99.90;;;;;;7319758;32;20222;-71
2022/04/20 05:41:42;;;;;;;6.03;2.55;;;5.10;99.90;;;;;;7319290;32;20115;-69
2022/04/20 05:45:44;;;;;;;5.10;2.67;;;5.30;99.90;;;;;;7313084;32;20127;-75
2022/04/20 05:49:46;;;;;;;4.82;2.40;;;5.50;99.90;;;;;;7322041;32;20162;-72
2022/04/20 05:53:47;;;;;;;10.93;5.47;;;5.70;99.90;;;;;;7311703;32;20936;-71
2022/04/20 05:57:49;;;;;;;7.55;2.78;;;5.90;99.90;;;;;;7301008;32;20349;-72
2022/04/20 06:01:51;;;;;;;6.35;2.47;;;6.10;99.90;;;;;;7324153;32;20131;-74
2022/04/20 06:05:53;;;;;;;3.65;2.10;;;6.30;99.90;;;;;;7322290;32;20550;-71
2022/04/20 06:09:55;;;;;;;6.32;1.92;;;6.60;99.90;;;;;;7316381;32;20559;-71
2022/04/20 06:13:57;;;;;;;6.57;2.40;;;6.80;99.90;;;;;;7300859;32;20237;-71
2022/04/20 06:17:59;;;;;;;3.78;1.80;;;7.00;99.90;;;;;;7322337;32;20138;-72
2022/04/20 06:22:01;;;;;;;4.37;1.77;;;7.30;99.90;;;;;;7310339;32;20224;-73
2022/04/20 06:26:04;;;;;;;7.05;2.00;;;7.70;99.90;;;;;;7313922;32;20142;-73
2022/04/20 06:30:07;;;;;;;7.10;1.55;;;8.00;99.90;;;;;;7310747;32;20324;-71
2022/04/20 06:34:08;;;;;;;4.12;1.80;;;8.20;99.90;;;;;;7315973;32;20134;-73
2022/04/20 06:38:10;;;;;;;6.05;1.90;;;8.60;99.90;;;;;;7313719;32;20138;-72
2022/04/20 06:42:12;;;;;;;5.97;2.12;;;8.90;99.90;;;;;;7315988;32;20120;-72
2022/04/20 06:46:14;;;;;;;3.60;1.55;;;9.10;99.90;;;;;;7311076;32;20139;-71
2022/04/20 06:50:16;;;;;;;3.67;1.40;;;9.20;99.90;;;;;;7314494;32;20504;-73
2022/04/20 06:58:41;;;;;;;6.07;1.60;;;9.60;99.90;;;;;;7311670;32;20511;-72
2022/04/20 07:02:43;;;;;;;3.78;1.77;;;9.70;99.90;;;;;;7309868;32;20153;-73
2022/04/20 07:06:45;;;;;;;4.18;1.60;;;9.90;99.90;;;;;;7316440;32;20134;-72
2022/04/20 07:10:47;;;;;;;3.35;1.70;;;10.20;99.90;;;;;;7314370;32;20115;-72
2022/04/20 07:14:49;;;;;;;7.30;1.73;;;10.40;99.90;;;;;;7312828;32;20115;-73
2022/04/20 07:18:51;;;;;;;6.75;1.45;;;10.90;99.90;;;;;;7313968;32;20252;-73
2022/04/20 07:22:54;;;;;;;3.45;1.40;;;11.50;99.90;;;;;;7316141;32;20214;-74
2022/04/20 07:26:55;;;;;;;3.03;1.30;;;11.50;99.90;;;;;;7301645;32;20111;-73
2022/04/20 07:30:57;;;;;;;5.15;1.90;;;11.90;99.90;;;;;;7313349;32;20555;-72
2022/04/20 07:34:59;;;;;;;3.33;1.85;;;12.60;99.90;;;;;;7311558;32;20708;-72
2022/04/20 07:39:00;;;;;;;3.42;1.75;;;12.80;99.90;;;;;;7311331;32;20211;-74
2022/04/20 07:43:02;;;;;;;3.15;1.65;;;12.90;99.90;;;;;;7309868;32;20199;-75
2022/04/20 07:47:04;;;;;;;3.47;1.73;;;12.50;97.50;;;;;;7314071;32;20456;-74
2022/04/20 07:51:06;;;;;;;6.40;2.00;;;12.40;98.70;;;;;;7320034;32;20111;-74
2022/04/20 07:55:19;;;;;;;6.15;1.90;;;12.80;99.90;;;;;;7315125;32;20120;-74
2022/04/20 07:59:20;;;;;;;4.65;2.10;;;12.80;98.50;;;;;;7310227;32;21510;-75
2022/04/20 08:03:22;;;;;;;2.92;1.65;;;12.90;97.60;;;;;;7313023;32;20118;-75
2022/04/20 08:07:24;;;;;;;5.07;2.28;;;13.00;96.50;;;;;;7314178;32;20137;-74
2022/04/20 08:11:26;;;;;;;3.70;2.47;;;12.80;94.50;;;;;;7309117;32;20155;-73
2022/04/20 08:15:28;;;;;;;5.97;1.85;;;13.00;94.00;;;;;;7292202;32;20187;-72
2022/04/20 08:19:30;;;;;;;4.28;1.90;;;13.50;97.20;;;;;;7312155;32;20115;-73
2022/04/20 08:23:32;;;;;;;3.00;1.73;;;13.80;93.30;;;;;;7313172;32;20514;-75
2022/04/20 08:27:35;;;;;;;5.57;2.22;;;13.70;87.00;;;;;;7311869;32;20214;-75
2022/04/20 08:31:37;;;;;;;4.15;1.80;;;13.30;88.10;;;;;;7311907;32;20238;-72
2022/04/20 08:35:38;;;;;;;3.12;1.90;;;13.30;89.30;;;;;;7309786;32;20237;-72
2022/04/20 08:39:40;;;;;;;4.93;1.95;;;13.50;88.50;;;;;;7311997;32;20135;-73
2022/04/20 08:43:42;;;;;;;5.18;2.20;;;13.70;88.80;;;;;;7318070;32;20504;-74
2022/04/20 08:47:44;;;;;;;4.35;1.80;;;14.10;84.50;;;;;;7308450;32;20586;-75
2022/04/20 09:00:31;;;;;;;3.53;1.60;;;15.30;76.70;;;;;;7315710;32;20108;-73
2022/04/20 09:04:32;;;;;;;6.20;1.70;;;15.20;72.10;;;;;;7314165;32;20238;-72
2022/04/20 09:08:34;;;;;;;4.68;1.37;;;15.10;71.10;;;;;;7320412;32;20268;-72
2022/04/20 09:12:42;;;;;;;2.92;1.42;;;16.50;72.60;;;;;;7321517;32;20126;-73
2022/04/20 09:16:43;;;;;;;3.25;1.60;;;16.00;64.00;;;;;;7319012;32;20691;-74
2022/04/20 09:20:46;;;;;;;4.80;2.15;;;16.70;66.10;;;;;;7315266;32;20199;-72
2022/04/20 09:25:10;;;;;;;2.62;1.52;;;16.00;63.10;;;;;;7318829;32;20409;-72
2022/04/20 09:29:14;;;;;;;3.60;1.70;;;16.50;64.10;;;;;;7316608;32;20173;-75
2022/04/20 09:33:16;;;;;;;5.25;1.95;;;15.90;67.40;;;;;;7313212;32;20203;-75
2022/04/20 09:37:18;;;;;;;3.70;1.73;;;16.40;66.00;;;;;;7317053;32;20520;-71
2022/04/20 09:41:19;;;;;;;4.15;1.87;;;16.90;67.30;;;;;;7315691;32;20111;-73
2022/04/20 09:45:21;;;;;;;4.93;1.90;;;17.50;62.50;;;;;;7317384;32;20269;-75
2022/04/20 09:49:24;;;;;;;3.58;1.50;;;18.00;64.90;;;;;;7313259;32;20129;-73
2022/04/20 09:53:32;;;;;;;4.95;1.40;;;18.30;59.40;;;;;;7320159;32;20116;-73
2022/04/20 09:57:37;;;;;;;4.72;1.65;;;19.80;53.70;;;;;;7316148;32;20216;-74
2022/04/20 10:01:45;;;;;;;4.37;1.87;;;19.20;52.50;;;;;;7315976;32;20194;-73
2022/04/20 10:05:47;;;;;;;4.07;1.70;;;18.70;54.40;;;;;;7315953;32;20138;-73
2022/04/20 10:09:49;;;;;;;5.40;1.55;;;18.90;57.20;;;;;;7319652;32;20299;-74
2022/04/20 10:18:19;;;;;;;2.33;1.27;;;18.80;53.00;;;;;;7313211;32;20134;-72
2022/04/20 10:22:24;;;;;;;3.78;1.15;;;18.90;53.50;;;;;;7311202;32;20141;-74
2022/04/20 10:26:26;;;;;;;4.20;1.55;;;19.80;53.60;;;;;;7315987;32;20578;-75
2022/04/20 10:30:32;;;;;;;3.12;1.52;;;18.40;52.00;;;;;;7318538;32;20107;-72
2022/04/20 10:34:35;;;;;;;5.82;2.30;;;18.60;53.80;;;;;;7315813;32;20247;-77
2022/04/20 10:38:38;;;;;;;3.60;1.87;;;18.40;54.40;;;;;;7312935;32;20127;-74
2022/04/20 10:42:40;;;;;;;4.47;1.70;;;18.70;54.40;;;;;;7317496;32;20115;-76
2022/04/20 10:47:03;;;;;;;3.80;1.75;;;18.50;54.70;;;;;;7312647;32;20680;-74
2022/04/20 10:51:19;;;;;;;5.28;1.83;;;18.00;58.80;;;;;;7310750;32;20103;-74
2022/04/20 10:55:30;;;;;;;3.15;1.70;;;17.80;56.30;;;;;;7315143;32;20190;-73
2022/04/20 10:59:32;;;;;;;6.25;1.98;;;17.60;57.50;;;;;;7314315;32;24609;-76
2022/04/20 11:03:58;;;;;;;2.20;1.60;;;16.80;58.40;;;;;;7307945;32;20523;-71
2022/04/20 11:08:07;;;;;;;6.00;1.98;;;16.80;58.50;;;;;;7319305;32;20218;-75
2022/04/20 11:21:06;;;;;;;7.20;1.87;;;16.70;60.30;;;;;;7317440;32;20804;-76
2022/04/20 11:25:09;;;;;;;3.37;1.83;;;16.80;60.40;;;;;;7310441;32;20284;-66
2022/04/20 11:29:22;;;;;;;2.20;1.67;;;16.60;58.40;;;;;;7315448;32;20535;-65
2022/04/20 11:33:25;;;;;;;4.35;1.60;;;16.90;57.80;;;;;;7307263;32;20127;-67
2022/04/20 11:37:27;;;;;;;3.47;1.50;;;16.90;60.60;;;;;;7318179;32;20111;-67
2022/04/20 11:41:28;;;;;;;2.60;1.70;;;16.90;57.10;;;;;;7316913;32;20159;-66
2022/04/20 11:45:33;;;;;;;4.82;2.10;;;16.90;59.10;;;;;;7317544;32;20135;-67
2022/04/20 11:49:42;;;;;;;3.65;2.10;;;17.00;60.30;;;;;;7319278;32;20657;-67
2022/04/20 11:53:45;;;;;;;3.05;1.90;;;16.70;58.70;;;;;;7311198;32;20120;-67
2022/04/20 11:57:48;;;;;;;5.00;2.35;;;16.70;60.60;;;;;;7312217;32;20203;-67
2022/04/20 12:01:51;;;;;;;3.78;2.05;;;16.70;60.40;;;;;;7293959;32;20111;-66
2022/04/20 12:06:04;;;;;;;3.78;1.80;;;16.90;59.60;;;;;;7309457;32;20204;-66
2022/04/20 12:10:06;;;;;;;4.15;2.10;;;16.90;60.20;;;;;;7312507;32;20141;-65
2022/04/20 12:14:09;;;;;;;2.58;1.90;;;17.00;61.00;;;;;;7314112;32;20520;-65
2022/04/20 12:18:10;;;;;;;4.78;2.10;;;17.20;60.70;;;;;;7311084;32;20303;-75
2022/04/20 12:22:16;;;;;;;3.62;1.85;;;17.20;59.80;;;;;;7312581;32;20184;-73
2022/04/20 12:26:27;;;;;;;4.18;1.90;;;17.10;59.80;;;;;;7312409;32;20881;-65
2022/04/20 12:30:36;;;;;;;2.97;1.65;;;17.00;59.90;;;;;;7312811;32;20107;-65
2022/04/20 12:34:51;;;;;;;4.12;1.42;;;17.20;59.20;;;;;;7320397;32;20134;-65
2022/04/20 12:38:53;;;;;;;4.62;1.60;;;17.20;60.40;;;;;;7314346;32;20150;-66
2022/04/20 12:43:05;;;;;;;2.22;1.80;;;17.50;60.40;;;;;;7314244;32;20194;-73
2022/04/20 12:47:11;;;;;;;3.12;1.50;;;17.70;60.30;;;;;;7311242;32;20720;-76
2022/04/20 12:51:23;;;;;;;6.60;1.80;;;17.50;58.50;;;;;;7315119;32;20135;-73
2022/04/20 12:55:44;;;;;;;4.45;1.60;;;17.30;58.70;;;;;;7283711;32;20113;-73
2022/04/20 13:04:06;;;;;;;2.85;2.10;;;17.40;60.20;;;;;;7313488;32;20436;-75
2022/04/20 13:08:10;;;;;;;3.90;2.75;;;17.20;58.40;;;;;;7310280;32;20148;-76
2022/04/20 13:12:12;;;;;;;3.95;2.03;;;17.20;59.10;;;;;;7315990;32;20685;-75
2022/04/20 13:16:14;;;;;;;6.18;2.10;;;17.20;58.60;;;;;;7316443;32;20100;-72
2022/04/20 13:20:18;;;;;;;3.15;1.90;;;17.10;61.00;;;;;;7319096;32;20177;-72
2022/04/20 13:28:41;;;;;;;5.28;2.10;;;17.20;59.00;;;;;;7309767;32;20576;-66
2022/04/20 13:32:42;;;;;;;3.37;2.55;;;17.40;60.50;;;;;;7312875;32;20100;-66
2022/04/20 13:36:44;;;;;;;3.40;1.80;;;17.20;59.60;;;;;;7313196;32;20182;-71
2022/04/20 13:40:46;;;;;;;4.97;1.80;;;17.20;59.90;;;;;;7313301;32;20095;-71
2022/04/20 13:44:48;;;;;;;3.45;2.03;;;17.40;60.90;;;;;;7305788;32;20131;-71
2022/04/20 13:48:51;;;;;;;4.47;2.05;;;17.50;58.80;;;;;;7315083;32;20107;-72
2022/04/20 13:52:53;;;;;;;4.30;2.00;;;17.60;60.60;;;;;;7315716;32;20768;-73
2022/04/20 13:56:56;;;;;;;4.62;2.17;;;17.50;59.10;;;;;;7315680;32;20340;-70
2022/04/20 14:00:57;;;;;;;2.90;2.10;;;17.20;58.80;;;;;;7316190;32;20118;-73
2022/04/20 14:04:59;;;;;;;4.95;2.30;;;17.40;59.90;;;;;;7317720;32;20194;-74
2022/04/20 14:09:03;;;;;;;3.15;2.03;;;17.30;60.20;;;;;;7320078;32;20126;-72
2022/04/20 14:13:06;;;;;;;5.05;4.43;;;17.30;60.70;;;;;;7318807;32;20100;-73
2022/04/20 14:17:10;;;;;;;3.22;1.60;;;17.60;60.00;;;;;;7317697;32;20126;-71
2022/04/20 14:21:13;;;;;;;2.55;1.73;;;17.60;60.30;;;;;;7321355;32;20560;-60
2022/04/20 14:32:09;;;;;;;5.47;2.10;;;17.70;59.70;;;;;;7321335;32;20228;-61
2022/04/20 14:34:13;;;;;;;3.67;2.37;;;17.50;59.60;;;;;;7321573;32;20650;-61
2022/04/20 14:38:14;;;;;;;4.00;3.22;;;17.50;60.40;;;;;;7307265;32;20107;-61
2022/04/20 14:42:17;;;;;;;4.18;1.90;;;17.60;60.50;;;;;;7319021;32;20186;-60
2022/04/20 14:46:19;;;;;;;3.75;2.00;;;17.90;59.70;;;;;;7309919;32;20132;-60
2022/04/20 14:50:21;;;;;;;2.70;1.60;;;17.60;61.10;;;;;;7318459;32;20531;-72
2022/04/20 14:54:23;;;;;;;5.22;2.03;;;17.80;62.20;;;;;;7317033;32;20106;-71
2022/04/20 14:58:25;;;;;;;5.28;2.00;;;17.80;59.60;;;;;;7312850;32;20103;-70
2022/04/20 15:02:26;;;;;;;7.93;2.55;;;17.70;60.60;;;;;;7320578;32;20108;-72
2022/04/20 15:06:33;;;;;;;4.10;2.30;;;17.60;60.40;;;;;;7328367;32;20151;-70
2022/04/20 15:10:37;;;;;;;4.53;2.50;;;17.30;60.30;;;;;;7317723;32;22262;-73
2022/04/20 15:14:39;;;;;;;3.75;2.00;;;16.90;61.60;;;;;;7307735;32;20122;-73
2022/04/20 15:18:41;;;;;;;3.75;1.87;;;16.90;62.50;;;;;;7312992;32;20166;-70
2022/04/20 15:22:43;;;;;;;4.20;2.10;;;16.90;62.90;;;;;;7320115;32;20874;-71
2022/04/20 15:26:45;;;;;;;8.55;2.67;;;16.80;64.10;;;;;;7307237;32;20229;-71
2022/04/20 15:30:47;;;;;;;4.15;2.12;;;16.80;63.10;;;;;;7316292;32;20096;-72
2022/04/20 15:34:49;;;;;;;4.60;2.25;;;16.70;65.30;;;;;;7318156;32;20132;-73
2022/04/20 15:38:51;;;;;;;5.35;3.37;;;16.80;65.60;;;;;;7320202;32;20198;-73
2022/04/20 15:42:53;;;;;;;5.37;3.03;;;16.70;64.70;;;;;;7324271;32;20185;-72
2022/04/20 15:46:54;;;;;;;4.60;3.22;;;16.60;66.30;;;;;;7312638;32;20444;-71
2022/04/20 15:50:57;;;;;;;7.10;3.80;;;16.60;67.10;;;;;;7314263;32;20640;-72
2022/04/20 16:03:40;;;;;;;4.47;3.70;;;16.30;69.00;;;;;;7314346;32;20129;-74
2022/04/20 16:07:41;;;;;;;6.90;3.90;;;16.40;70.10;;;;;;7315409;32;20095;-72
2022/04/20 16:11:43;;;;;;;5.40;3.33;;;16.40;70.90;;;;;;7314527;32;20103;-71
2022/04/20 16:15:46;;;;;;;6.00;3.83;;;16.30;70.10;;;;;;7312878;32;20214;-73
2022/04/20 16:19:48;;;;;;;9.32;3.17;;;16.10;70.40;;;;;;7315274;32;20111;-73
2022/04/20 16:23:49;;;;;;;4.87;3.50;;;16.10;72.10;;;;;;7315657;32;20099;-70
2022/04/20 16:27:51;;;;;;;6.90;3.30;;;16.10;71.10;;;;;;7314459;32;20108;-72
2022/04/20 16:31:53;;;;;;;5.03;2.80;;;16.10;72.70;;;;;;7314192;32;20610;-73
2022/04/20 16:35:54;;;;;;;7.60;4.32;;;16.10;74.20;;;;;;7316996;32;20125;-71
2022/04/20 16:39:56;;;;;;;5.65;3.37;;;16.00;73.40;;;;;;7313971;32;20138;-72
2022/04/20 16:43:59;;;;;;;5.75;2.92;;;16.00;73.30;;;;;;7316254;32;20126;-73
2022/04/20 16:48:00;;;;;;;6.20;3.20;;;15.90;72.50;;;;;;7314734;32;20150;-72
2022/04/20 16:52:02;;;;;;;11.98;7.80;;;15.90;74.40;;;;;;7314272;32;20221;-73
2022/04/20 16:56:04;;;;;;;26.15;20.30;;;15.80;74.80;;;;;;7314210;32;20272;-72
2022/04/20 17:00:18;;;;;;;6.85;3.62;;;15.80;75.90;;;;;;7312512;32;20104;-73
2022/04/20 17:04:20;;;;;;;8.55;4.25;;;15.90;75.40;;;;;;7313762;32;20140;-73
2022/04/20 17:08:22;;;;;;;7.07;3.40;;;15.70;75.80;;;;;;7314510;32;20277;-72
2022/04/20 17:12:24;;;;;;;8.43;3.92;;;15.70;77.30;;;;;;7314056;32;20233;-72
2022/04/20 17:16:26;;;;;;;7.28;3.58;;;15.70;78.60;;;;;;7310395;32;20138;-73
2022/04/20 17:29:28;;;;;;;3.65;2.80;;;15.40;81.40;;;;;;7273874;32;20174;-73
2022/04/20 17:33:36;;;;;;;;;;;15.30;82.10;;;;;;7332001;32;21017;-73
2022/04/20 17:37:38;;;;;;;3.28;2.55;;;15.30;82.50;;;;;;7322845;32;20022;-73
2022/04/20 17:41:41;;;;;;;7.43;2.92;;;15.20;83.00;;;;;;7324855;32;20111;-71
2022/04/20 17:45:45;;;;;;;5.12;3.37;;;15.10;83.70;;;;;;7322498;32;20220;-71
2022/04/20 17:49:47;;;;;;;4.80;2.65;;;14.90;86.30;;;;;;7320796;32;20115;-71
2022/04/20 17:53:49;;;;;;;4.35;2.60;;;14.90;87.30;;;;;;7319176;32;20319;-71
2022/04/20 17:57:50;;;;;;;5.93;2.47;;;14.80;87.60;;;;;;7313826;32;20130;-69
2022/04/20 18:01:52;;;;;;;9.43;4.80;;;14.70;89.20;;;;;;7317785;32;20679;-70
2022/04/20 18:05:55;;;;;;;8.32;3.03;;;14.60;89.00;;;;;;7321687;32;20288;-69
2022/04/20 18:09:57;;;;;;;7.40;3.62;;;14.50;90.00;;;;;;7328652;32;20119;-69
2022/04/20 18:13:58;;;;;;;3.45;2.40;;;14.40;90.70;;;;;;7320893;32;20587;-68
2022/04/20 18:18:00;;;;;;;7.70;3.37;;;14.40;90.50;;;;;;7315995;32;20161;-69
2022/04/20 18:22:02;;;;;;;5.25;1.90;;;14.30;89.80;;;;;;7319622;32;20226;-72
2022/04/20 18:26:04;;;;;;;7.45;4.25;;;14.10;88.10;;;;;;7318279;32;20120;-69
2022/04/20 18:30:06;;;;;;;10.23;8.30;;;14.20;88.30;;;;;;7319180;32;20484;-68
2022/04/20 18:34:08;;;;;;;10.13;5.70;;;14.00;88.80;;;;;;7318946;32;20147;-69
2022/04/20 18:38:09;;;;;;;5.82;2.70;;;13.90;89.30;;;;;;7324910;32;20134;-70
2022/04/20 18:42:11;;;;;;;4.40;2.08;;;13.70;89.60;;;;;;7320837;32;20134;-68
2022/04/20 18:46:12;;;;;;;3.78;1.73;;;13.70;90.00;;;;;;7317712;32;20202;-70
2022/04/20 18:50:15;;;;;;;8.20;2.55;;;13.70;90.30;;;;;;7316402;32;20138;-67
2022/04/20 18:58:37;;;;;;;7.20;3.10;;;13.50;91.70;;;;;;7320664;32;20103;-70
2022/04/20 19:02:39;;;;;;;5.82;3.47;;;13.40;92.00;;;;;;7323854;32;20221;-70
2022/04/20 19:06:40;;;;;;;8.40;2.85;;;13.40;92.70;;;;;;7319012;32;20135;-68
2022/04/20 19:10:42;;;;;;;6.15;2.20;;;13.30;93.50;;;;;;7324165;32;20139;-67
2022/04/20 19:14:49;;;;;;;6.37;2.80;;;13.20;94.60;;;;;;7317150;32;20209;-70
2022/04/20 19:18:51;;;;;;;6.85;2.80;;;13.20;94.80;;;;;;7314823;32;20502;-68
2022/04/20 19:22:54;;;;;;;6.60;3.25;;;13.10;95.90;;;;;;7321884;32;20194;-68
2022/04/20 19:26:56;;;;;;;8.82;3.40;;;13.00;96.50;;;;;;7321392;32;20110;-69
2022/04/20 19:30:58;;;;;;;7.40;2.60;;;12.90;97.50;;;;;;7324972;32;20129;-69
2022/04/20 19:35:00;;;;;;;8.63;2.70;;;12.90;97.90;;;;;;7331383;32;20111;-70
2022/04/20 19:39:07;;;;;;;4.95;2.65;;;12.80;98.90;;;;;;7322620;32;20641;-68
2022/04/20 19:43:08;;;;;;;7.10;2.70;;;12.70;99.90;;;;;;7316821;32;20221;-66
2022/04/20 19:47:12;;;;;;;6.03;2.50;;;12.60;99.90;;;;;;7317576;32;20134;-66
2022/04/20 19:51:14;;;;;;;4.95;2.80;;;12.50;99.90;;;;;;7318690;32;20149;-65
2022/04/20 19:55:16;;;;;;;6.60;2.72;;;12.50;99.90;;;;;;7319096;32;20140;-66
2022/04/20 19:59:38;;;;;;;6.05;3.47;;;12.50;99.90;;;;;;7312863;32;20535;-67
2022/04/20 20:03:39;;;;;;;5.03;2.80;;;12.40;99.90;;;;;;7318389;32;20617;-69
2022/04/20 20:07:41;;;;;;;6.82;3.72;;;12.40;99.90;;;;;;7307440;32;20241;-68
2022/04/20 20:11:43;;;;;;;8.70;4.80;;;12.40;99.90;;;;;;7315672;32;20238;-68
2022/04/20 20:15:45;;;;;;;4.62;3.50;;;12.40;99.90;;;;;;7318665;32;20115;-67
2022/04/20 20:19:47;;;;;;;9.52;3.60;;;12.60;99.90;;;;;;7310770;32;20276;-68
2022/04/20 20:32:33;;;;;;;7.82;3.10;;;12.30;99.90;;;;;;7316015;32;20143;-69
2022/04/20 20:36:35;;;;;;;6.35;3.00;;;12.40;99.90;;;;;;7319216;32;20112;-68
2022/04/20 20:40:37;;;;;;;4.47;2.80;;;12.40;99.90;;;;;;7318926;32;20215;-68
2022/04/20 20:44:40;;;;;;;9.15;4.10;;;12.30;99.90;;;;;;7315265;32;20194;-68
2022/04/20 20:53:02;;;;;;;6.12;3.50;;;12.30;99.90;;;;;;7320842;32;20126;-69
2022/04/20 20:57:04;;;;;;;6.35;3.12;;;12.30;99.90;;;;;;7318861;32;20199;-69
2022/04/20 21:01:06;;;;;;;6.53;3.20;;;12.20;99.90;;;;;;7319813;32;20317;-67
2022/04/20 21:05:08;;;;;;;4.30;2.80;;;12.20;99.90;;;;;;7321723;32;20119;-66
2022/04/20 21:09:10;;;;;;;3.97;3.12;;;12.10;99.90;;;;;;7317484;32;20508;-67
2022/04/20 21:13:12;;;;;;;4.93;2.70;;;12.00;99.90;;;;;;7324053;32;20111;-71
2022/04/20 21:17:14;;;;;;;4.93;2.25;;;12.00;99.90;;;;;;7323908;32;20116;-70
2022/04/20 21:21:16;;;;;;;4.95;2.80;;;11.90;99.90;;;;;;7323060;32;20107;-70
2022/04/20 21:25:19;;;;;;;3.70;2.65;;;11.80;99.90;;;;;;7317029;32;20333;-70
2022/04/20 21:29:21;;;;;;;3.85;2.33;;;11.80;99.90;;;;;;7321795;32;20111;-70
2022/04/20 21:33:22;;;;;;;4.35;2.80;;;11.80;99.90;;;;;;7320942;32;20108;-70
2022/04/20 21:37:24;;;;;;;4.12;2.40;;;11.80;99.90;;;;;;7314314;32;20712;-70
2022/04/20 21:41:26;;;;;;;5.57;2.45;;;11.70;99.90;;;;;;7317338;32;20209;-70
2022/04/20 21:45:28;;;;;;;3.70;2.42;;;11.80;99.90;;;;;;7316824;32;20199;-68
2022/04/20 21:49:30;;;;;;;4.68;2.78;;;11.80;99.90;;;;;;7313244;32;20479;-70
2022/04/20 21:53:33;;;;;;;10.13;2.35;;;11.80;99.90;;;;;;7318310;32;20248;-70
2022/04/20 21:57:34;;;;;;;3.67;2.83;;;11.90;99.90;;;;;;7319048;32;20135;-68
2022/04/20 22:01:40;;;;;;;4.10;2.42;;;11.90;99.90;;;;;;7315706;32;20119;-70
2022/04/20 22:10:03;;;;;;;4.75;2.35;;;12.00;99.90;;;;;;7319295;32;20241;-69
2022/04/20 22:14:05;;;;;;;4.70;2.60;;;12.00;99.90;;;;;;7316137;32;20613;-69
2022/04/20 22:18:08;;;;;;;4.35;2.67;;;12.00;99.90;;;;;;7318431;32;20532;-70
2022/04/20 22:22:10;;;;;;;8.60;2.50;;;11.90;99.90;;;;;;7321296;32;20103;-69
2022/04/20 22:26:12;;;;;;;4.72;2.55;;;11.80;99.90;;;;;;7318496;32;20167;-70
2022/04/20 22:30:13;;;;;;;5.32;3.00;;;11.70;99.90;;;;;;7315578;32;21547;-70
2022/04/20 22:34:16;;;;;;;10.18;3.00;;;11.70;99.90;;;;;;7318582;32;20165;-71
2022/04/20 22:38:18;;;;;;;5.12;3.10;;;11.60;99.90;;;;;;7319511;32;20134;-70